createdAt,value
2019-03-03T00:02:13.842Z,4.10
2019-03-03T00:04:53.895Z,4.00
2019-03-03T00:07:33.602Z,4.10
2019-03-03T00:10:11.086Z,4.10
2019-03-03T00:12:57.282Z,4.10
2019-03-03T00:15:36.767Z,4.10
2019-03-03T00:18:16.625Z,4.20
2019-03-03T00:20:56.135Z,4.20
2019-03-03T00:23:35.698Z,4.30
2019-03-03T00:26:15.766Z,3.90
2019-03-03T00:28:55.705Z,4.10
2019-03-03T00:31:35.602Z,4.00
2019-03-03T00:34:12.891Z,3.70
2019-03-03T00:36:59.308Z,4.00
2019-03-03T00:42:51.881Z,3.90
2019-03-03T00:45:36.285Z,4.00
2019-03-03T00:48:20.809Z,3.70
2019-03-03T00:51:05.433Z,3.40
2019-03-03T00:54:04.945Z,3.90
2019-03-03T00:57:04.769Z,3.90
2019-03-03T00:59:45.954Z,3.70
2019-03-03T01:02:45.747Z,3.80
2019-03-03T01:05:45.085Z,3.80
2019-03-03T01:08:44.909Z,4.10
2019-03-03T01:11:29.021Z,4.10
2019-03-03T01:17:15.209Z,4.20
2019-03-03T01:19:56.221Z,4.30
2019-03-03T01:22:37.488Z,4.20
2019-03-03T01:25:17.267Z,4.20
2019-03-03T01:27:54.757Z,4.20
2019-03-03T01:30:40.957Z,4.40
2019-03-03T01:33:20.102Z,4.30
2019-03-03T01:35:59.945Z,4.20
2019-03-03T01:38:39.969Z,4.20
2019-03-03T01:41:19.849Z,4.10
2019-03-03T01:43:59.058Z,4.10
2019-03-03T01:46:38.257Z,3.90
2019-03-03T01:49:18.105Z,4.20
2019-03-03T01:51:57.256Z,4.00
2019-03-03T01:54:23.820Z,4.10
2019-03-03T01:57:10.025Z,4.10
2019-03-03T01:59:49.327Z,3.50
2019-03-03T02:02:28.553Z,4.00
2019-03-03T02:05:07.771Z,3.90
2019-03-03T02:07:47.438Z,4.00
2019-03-03T02:10:26.665Z,4.00
2019-03-03T02:13:06.761Z,3.60
2019-03-03T02:15:46.741Z,3.90
2019-03-03T02:18:26.728Z,3.60
2019-03-03T02:21:06.956Z,4.10
2019-03-03T02:23:47.001Z,3.60
2019-03-03T02:26:26.930Z,3.90
2019-03-03T02:29:06.911Z,3.80
2019-03-03T02:31:44.245Z,4.00
2019-03-03T02:34:30.333Z,3.80
2019-03-03T02:37:10.058Z,3.40
2019-03-03T02:39:49.347Z,3.80
2019-03-03T02:42:29.563Z,3.80
2019-03-03T02:45:08.266Z,3.70
2019-03-03T02:47:47.717Z,3.70
2019-03-03T02:50:27.670Z,3.70
2019-03-03T02:53:07.728Z,3.70
2019-03-03T02:55:47.728Z,3.30
2019-03-03T02:58:27.827Z,3.40
2019-03-03T03:01:12.674Z,3.70
2019-03-03T03:03:51.966Z,3.70
2019-03-03T03:06:33.050Z,3.70
2019-03-03T03:09:14.334Z,3.20
2019-03-03T03:11:56.110Z,3.70
2019-03-03T03:14:55.257Z,3.70
2019-03-03T03:17:36.379Z,3.40
2019-03-03T03:20:36.460Z,3.80
2019-03-03T03:23:15.606Z,3.70
2019-03-03T03:26:21.735Z,3.70
2019-03-03T03:29:21.551Z,3.60
2019-03-03T03:32:08.720Z,3.50
2019-03-03T03:34:50.666Z,3.50
2019-03-03T03:37:49.687Z,3.50
2019-03-03T03:40:48.786Z,3.60
2019-03-03T03:43:48.061Z,3.50
2019-03-03T03:46:33.070Z,3.50
2019-03-03T03:52:26.349Z,3.60
2019-03-03T03:55:25.718Z,3.60
2019-03-03T03:58:24.900Z,3.50
2019-03-03T04:01:09.169Z,3.50
2019-03-03T04:03:53.341Z,3.10
2019-03-03T04:06:55.304Z,3.30
2019-03-03T04:09:39.434Z,3.30
2019-03-03T04:12:38.653Z,3.00
2019-03-03T04:15:38.176Z,3.30
2019-03-03T04:18:38.068Z,3.00
2019-03-03T04:21:37.468Z,3.30
2019-03-03T04:24:36.797Z,3.10
2019-03-03T04:27:17.987Z,2.80
2019-03-03T04:29:59.934Z,3.30
2019-03-03T04:32:45.089Z,3.50
2019-03-03T04:41:28.122Z,2.90
2019-03-03T04:44:09.938Z,3.30
2019-03-03T04:46:53.825Z,3.30
2019-03-03T04:52:44.821Z,2.80
2019-03-03T04:55:43.941Z,3.30
2019-03-03T04:58:25.189Z,3.20
2019-03-03T05:01:25.030Z,3.50
2019-03-03T05:04:12.323Z,3.60
2019-03-03T05:06:54.153Z,3.20
2019-03-03T05:09:53.433Z,3.40
2019-03-03T05:12:52.492Z,3.10
2019-03-03T05:15:51.712Z,3.40
2019-03-03T05:21:30.330Z,3.20
2019-03-03T05:24:09.815Z,3.20
2019-03-03T05:26:47.194Z,3.30
2019-03-03T05:29:33.301Z,3.20
2019-03-03T05:32:13.105Z,3.10
2019-03-03T05:34:53.089Z,3.30
2019-03-03T05:37:32.369Z,3.30
2019-03-03T05:40:12.302Z,3.40
2019-03-03T05:42:49.779Z,2.90
2019-03-03T05:45:35.965Z,3.20
2019-03-03T05:48:15.577Z,3.20
2019-03-03T05:50:55.462Z,3.10
2019-03-03T05:53:35.601Z,3.10
2019-03-03T05:56:16.349Z,3.10
2019-03-03T05:58:56.702Z,3.00
2019-03-03T06:01:36.539Z,3.20
2019-03-03T06:04:16.377Z,3.20
2019-03-03T06:06:55.645Z,2.90
2019-03-03T06:09:34.827Z,3.20
2019-03-03T06:12:14.815Z,3.10
2019-03-03T06:14:54.990Z,3.10
2019-03-03T06:17:34.846Z,3.00
2019-03-03T06:20:14.948Z,3.10
2019-03-03T06:22:54.817Z,3.10
2019-03-03T06:25:34.911Z,3.20
2019-03-03T06:28:14.854Z,2.70
2019-03-03T06:30:54.204Z,3.20
2019-03-03T06:33:34.061Z,3.10
2019-03-03T06:36:14.091Z,3.10
2019-03-03T06:38:53.230Z,3.10
2019-03-03T06:41:32.340Z,2.90
2019-03-03T06:44:09.718Z,3.00
2019-03-03T06:46:49.590Z,3.00
2019-03-03T06:49:29.036Z,3.10
2019-03-03T06:52:06.345Z,2.90
2019-03-03T06:54:52.561Z,3.10
2019-03-03T06:57:32.315Z,3.10
2019-03-03T07:00:12.135Z,3.10
2019-03-03T07:02:52.241Z,3.10
2019-03-03T07:05:32.109Z,2.90
2019-03-03T07:08:11.999Z,2.50
2019-03-03T07:10:52.037Z,2.90
2019-03-03T07:13:31.994Z,3.00
2019-03-03T07:16:11.934Z,2.90
2019-03-03T07:18:51.189Z,2.80
2019-03-03T07:21:31.003Z,2.40
2019-03-03T07:24:11.240Z,2.80
2019-03-03T07:26:51.257Z,2.80
2019-03-03T07:29:31.318Z,2.90
2019-03-03T07:32:11.170Z,2.90
2019-03-03T07:34:51.362Z,2.90
2019-03-03T07:37:31.145Z,2.70
2019-03-03T07:40:11.494Z,2.80
2019-03-03T07:42:52.961Z,2.80
2019-03-03T07:45:32.229Z,2.70
2019-03-03T07:48:11.329Z,2.50
2019-03-03T07:50:53.424Z,2.60
2019-03-03T07:53:33.374Z,2.70
2019-03-03T07:56:13.320Z,2.80
2019-03-03T08:02:05.434Z,2.80
2019-03-03T08:04:45.289Z,2.70
2019-03-03T08:07:24.499Z,2.80
2019-03-03T08:10:05.957Z,2.70
2019-03-03T08:12:45.635Z,2.60
2019-03-03T08:15:25.280Z,2.70
2019-03-03T08:18:06.629Z,2.60
2019-03-03T08:20:46.082Z,2.60
2019-03-03T08:23:26.158Z,2.70
2019-03-03T08:26:06.041Z,2.70
2019-03-03T08:28:46.131Z,2.70
2019-03-03T08:31:26.101Z,2.60
2019-03-03T08:34:06.100Z,2.50
2019-03-03T08:36:46.067Z,2.40
2019-03-03T08:39:25.986Z,2.40
2019-03-03T08:42:25.577Z,2.10
2019-03-03T08:45:09.589Z,2.40
2019-03-03T08:51:22.462Z,2.40
2019-03-03T08:54:03.502Z,2.00
2019-03-03T08:56:51.330Z,2.40
2019-03-03T08:59:50.577Z,2.40
2019-03-03T09:02:34.957Z,2.40
2019-03-03T09:05:16.042Z,2.40
2019-03-03T09:08:15.231Z,2.30
2019-03-03T09:11:14.316Z,2.30
2019-03-03T09:14:20.412Z,2.30
2019-03-03T09:17:19.467Z,2.50
2019-03-03T09:22:54.727Z,2.40
2019-03-03T09:25:35.764Z,2.40
2019-03-03T09:28:34.886Z,2.40
2019-03-03T09:31:15.962Z,2.40
2019-03-03T09:34:15.151Z,2.50
2019-03-03T09:37:14.297Z,2.30
2019-03-03T09:40:13.373Z,2.20
2019-03-03T09:42:54.498Z,2.20
2019-03-03T09:45:38.926Z,2.40
2019-03-03T09:48:20.794Z,2.00
2019-03-03T09:51:01.859Z,2.40
2019-03-03T09:54:01.010Z,2.30
2019-03-03T09:57:00.102Z,2.30
2019-03-03T09:59:59.419Z,2.20
2019-03-03T10:02:43.393Z,2.40
2019-03-03T10:05:24.801Z,2.40
2019-03-03T10:11:13.303Z,2.30
2019-03-03T10:13:52.385Z,2.20
2019-03-03T10:16:34.478Z,2.10
2019-03-03T10:19:15.741Z,2.30
2019-03-03T10:22:14.787Z,2.20
2019-03-03T10:24:58.733Z,2.20
2019-03-03T10:27:42.892Z,2.30
2019-03-03T10:30:24.065Z,2.30
2019-03-03T10:33:23.317Z,2.20
2019-03-03T10:36:22.383Z,2.30
2019-03-03T10:39:06.354Z,2.30
2019-03-03T10:41:50.207Z,2.40
2019-03-03T10:44:34.742Z,2.40
2019-03-03T10:47:19.445Z,2.30
2019-03-03T10:50:01.581Z,1.80
2019-03-03T10:53:01.419Z,1.90
2019-03-03T10:55:42.786Z,2.30
2019-03-03T10:58:27.427Z,2.40
2019-03-03T11:04:02.892Z,2.20
2019-03-03T11:06:44.857Z,2.20
2019-03-03T11:09:26.127Z,2.30
2019-03-03T11:12:07.993Z,2.30
2019-03-03T11:15:07.025Z,2.30
2019-03-03T11:17:48.089Z,2.30
2019-03-03T11:20:29.887Z,2.20
2019-03-03T11:23:35.957Z,2.30
2019-03-03T11:26:20.275Z,2.20
2019-03-03T11:29:04.149Z,2.20
2019-03-03T11:31:48.350Z,2.20
2019-03-03T11:34:30.325Z,2.30
2019-03-03T11:37:14.259Z,2.20
2019-03-03T11:39:55.477Z,1.70
2019-03-03T11:42:55.350Z,2.20
2019-03-03T11:45:54.394Z,2.20
2019-03-03T11:48:35.722Z,2.30
2019-03-03T11:51:35.567Z,2.20
2019-03-03T11:54:19.837Z,1.90
2019-03-03T12:00:32.046Z,2.20
2019-03-03T12:03:18.985Z,1.90
2019-03-03T12:08:59.669Z,2.20
2019-03-03T12:11:41.533Z,2.10
2019-03-03T12:14:26.342Z,1.90
2019-03-03T12:20:33.075Z,2.20
2019-03-03T12:23:14.197Z,2.10
2019-03-03T12:29:20.303Z,2.10
2019-03-03T12:32:04.129Z,2.20
2019-03-03T12:35:05.961Z,2.00
2019-03-03T12:41:13.297Z,2.00
2019-03-03T12:46:55.229Z,2.00
2019-03-03T12:50:01.251Z,2.20
2019-03-03T12:53:01.110Z,2.20
2019-03-03T12:58:52.245Z,2.10
2019-03-03T13:01:33.442Z,2.10
2019-03-03T13:04:17.423Z,2.20
2019-03-03T13:07:16.442Z,2.30
2019-03-03T13:10:15.642Z,2.30
2019-03-03T13:12:59.866Z,2.10
2019-03-03T13:16:00.488Z,2.30
2019-03-03T13:18:45.345Z,2.40
2019-03-03T13:21:47.298Z,2.30
2019-03-03T13:24:46.421Z,2.40
2019-03-03T13:27:45.992Z,2.20
2019-03-03T13:30:30.024Z,2.30
2019-03-03T13:33:30.502Z,2.30
2019-03-03T13:36:30.575Z,2.00
2019-03-03T13:42:08.587Z,2.40
2019-03-03T13:44:47.692Z,2.30
2019-03-03T13:47:27.681Z,2.30
2019-03-03T13:50:07.708Z,2.30
2019-03-03T13:52:47.680Z,2.20
2019-03-03T13:55:27.637Z,2.30
2019-03-03T13:58:06.843Z,2.30
2019-03-03T14:00:46.781Z,2.00
2019-03-03T14:03:26.788Z,2.30
2019-03-03T14:06:05.977Z,2.30
2019-03-03T14:08:45.845Z,2.20
2019-03-03T14:11:25.914Z,2.30
2019-03-03T14:14:05.909Z,2.30
2019-03-03T14:16:45.787Z,2.30
2019-03-03T14:19:25.758Z,2.50
2019-03-03T14:22:05.654Z,2.20
2019-03-03T14:24:45.061Z,2.30
2019-03-03T14:27:25.024Z,2.30
2019-03-03T14:30:05.262Z,2.20
2019-03-03T14:32:45.215Z,2.30
2019-03-03T14:35:24.457Z,1.90
2019-03-03T14:38:03.586Z,2.10
2019-03-03T14:40:43.689Z,1.80
2019-03-03T14:43:24.518Z,1.80
2019-03-03T14:46:04.494Z,2.30
2019-03-03T14:48:44.423Z,2.40
2019-03-03T14:51:24.638Z,2.30
2019-03-03T14:54:04.555Z,1.90
2019-03-03T14:56:44.577Z,2.30
2019-03-03T14:59:24.594Z,2.30
2019-03-03T15:02:04.454Z,2.00
2019-03-03T15:04:44.426Z,2.80
2019-03-03T15:10:05.641Z,5.80
2019-03-03T15:12:45.468Z,4.60
2019-03-03T15:15:25.599Z,3.80
2019-03-03T15:21:24.816Z,3.00
2019-03-03T15:23:59.735Z,2.40
2019-03-03T15:26:39.701Z,2.60
2019-03-03T15:29:19.033Z,2.40
2019-03-03T15:31:59.181Z,2.20
2019-03-03T15:34:39.122Z,2.30
2019-03-03T15:37:19.809Z,2.30
2019-03-03T15:39:59.037Z,2.00
2019-03-03T15:42:38.283Z,2.30
2019-03-03T15:45:17.505Z,2.10
2019-03-03T15:47:57.697Z,2.10
2019-03-03T15:50:37.774Z,2.10
2019-03-03T15:53:17.090Z,2.10
2019-03-03T15:55:56.935Z,2.10
2019-03-03T15:58:37.004Z,2.00
2019-03-03T16:01:14.242Z,2.30
2019-03-03T16:03:54.263Z,2.10
2019-03-03T16:06:34.010Z,2.20
2019-03-03T16:09:14.886Z,2.20
2019-03-03T16:11:54.142Z,2.10
2019-03-03T16:14:34.102Z,1.70
2019-03-03T16:17:14.016Z,2.10
2019-03-03T16:19:54.252Z,1.90
2019-03-03T16:22:33.843Z,2.10
2019-03-03T16:25:13.178Z,2.00
2019-03-03T16:27:52.781Z,2.10
2019-03-03T16:30:35.473Z,2.20
2019-03-03T16:33:20.480Z,2.00
2019-03-03T16:35:55.976Z,2.10
2019-03-03T16:38:35.086Z,2.00
2019-03-03T16:41:15.057Z,1.90
2019-03-03T16:43:55.102Z,2.10
2019-03-03T16:46:35.087Z,2.00
2019-03-03T16:49:15.106Z,1.90
2019-03-03T16:51:55.273Z,2.10
2019-03-03T16:54:35.265Z,2.00
2019-03-03T16:57:12.685Z,2.20
2019-03-03T16:59:58.901Z,2.10
2019-03-03T17:02:39.061Z,1.90
2019-03-03T17:05:18.341Z,2.00
2019-03-03T17:07:55.789Z,2.70
2019-03-03T17:13:21.649Z,2.50
2019-03-03T17:16:02.789Z,2.30
2019-03-03T17:18:42.605Z,2.20
2019-03-03T17:21:22.185Z,2.10
2019-03-03T17:27:00.359Z,2.10
2019-03-03T17:29:40.474Z,2.10
2019-03-03T17:32:20.442Z,2.10
2019-03-03T17:35:00.459Z,2.10
2019-03-03T17:37:40.677Z,5.70
2019-03-03T17:40:20.669Z,7.80
2019-03-03T17:43:00.005Z,9.60
2019-03-03T17:45:39.900Z,10.10
2019-03-03T17:48:19.922Z,10.40
2019-03-03T17:50:59.898Z,10.40
2019-03-03T17:53:39.917Z,10.40
2019-03-03T17:56:19.814Z,10.40
2019-03-03T17:59:00.235Z,10.00
2019-03-03T18:01:46.437Z,7.30
2019-03-03T18:04:25.794Z,5.70
2019-03-03T18:07:05.982Z,4.40
2019-03-03T18:09:45.998Z,3.60
2019-03-03T18:12:25.170Z,3.00
2019-03-03T18:15:05.357Z,2.70
2019-03-03T18:17:45.355Z,2.60
2019-03-03T18:20:25.413Z,1.90
2019-03-03T18:23:05.290Z,2.20
2019-03-03T18:25:44.526Z,2.20
2019-03-03T18:28:23.689Z,2.00
2019-03-03T18:31:03.745Z,2.00
2019-03-03T18:33:43.586Z,2.00
2019-03-03T18:42:19.761Z,2.10
2019-03-03T18:44:59.650Z,1.90
2019-03-03T18:47:38.879Z,1.80
2019-03-03T18:50:18.770Z,1.80
2019-03-03T18:52:59.914Z,1.70
2019-03-03T18:58:51.922Z,1.70
2019-03-03T19:01:31.712Z,1.70
2019-03-03T19:04:11.916Z,1.70
2019-03-03T19:06:51.701Z,1.60
2019-03-03T19:09:31.729Z,1.70
2019-03-03T19:12:11.731Z,1.70
2019-03-03T19:14:51.086Z,1.80
2019-03-03T19:17:30.890Z,1.70
2019-03-03T19:20:11.106Z,1.70
2019-03-03T19:22:50.881Z,1.70
2019-03-03T19:25:31.868Z,1.70
2019-03-03T19:28:11.522Z,1.40
2019-03-03T19:30:51.705Z,1.60
2019-03-03T19:33:31.557Z,1.70
2019-03-03T19:36:11.573Z,1.60
2019-03-03T19:38:51.371Z,1.60
2019-03-03T19:41:31.470Z,1.60
2019-03-03T19:44:11.377Z,1.60
2019-03-03T19:46:51.326Z,1.50
2019-03-03T19:49:31.394Z,1.50
2019-03-03T19:52:11.390Z,1.60
2019-03-03T19:54:51.299Z,1.60
2019-03-03T19:57:31.524Z,1.50
2019-03-03T20:00:11.202Z,1.60
2019-03-03T20:02:51.643Z,1.60
2019-03-03T20:05:31.286Z,1.40
2019-03-03T20:08:08.726Z,1.30
2019-03-03T20:10:54.817Z,1.60
2019-03-03T20:13:41.025Z,1.60
2019-03-03T20:16:20.596Z,1.40
2019-03-03T20:19:00.705Z,1.40
2019-03-03T20:21:39.896Z,1.60
2019-03-03T20:24:20.086Z,1.50
2019-03-03T20:26:59.927Z,1.30
2019-03-03T20:29:40.081Z,1.40
2019-03-03T20:32:19.899Z,1.50
2019-03-03T20:35:00.051Z,1.30
2019-03-03T20:37:39.718Z,1.40
2019-03-03T20:40:19.211Z,1.30
2019-03-03T20:42:58.805Z,1.40
2019-03-03T20:45:38.826Z,1.40
2019-03-03T20:48:18.723Z,1.30
2019-03-03T20:50:58.898Z,1.50
2019-03-03T20:53:38.776Z,1.40
2019-03-03T20:56:18.934Z,1.40
2019-03-03T20:58:58.885Z,1.40
2019-03-03T21:01:38.292Z,1.50
2019-03-03T21:04:17.970Z,1.30
2019-03-03T21:06:58.143Z,1.30
2019-03-03T21:09:37.910Z,1.40
2019-03-03T21:12:17.129Z,1.30
2019-03-03T21:14:57.067Z,1.40
2019-03-03T21:17:36.497Z,1.30
2019-03-03T21:20:16.334Z,1.40
2019-03-03T21:22:56.318Z,1.30
2019-03-03T21:25:36.233Z,1.20
2019-03-03T21:28:15.530Z,1.30
2019-03-03T21:30:55.573Z,1.40
2019-03-03T21:33:35.628Z,1.40
2019-03-03T21:36:15.500Z,1.50
2019-03-03T21:38:54.667Z,1.40
2019-03-03T21:41:34.886Z,1.40
2019-03-03T21:44:14.763Z,1.30
2019-03-03T21:46:54.713Z,0.90
2019-03-03T21:49:34.625Z,1.30
2019-03-03T21:52:14.362Z,1.30
2019-03-03T21:54:54.610Z,1.20
2019-03-03T21:57:34.466Z,1.30
2019-03-03T22:00:14.417Z,1.40
2019-03-03T22:02:51.716Z,1.20
2019-03-03T22:05:31.430Z,1.30
2019-03-03T22:08:08.712Z,1.30
2019-03-03T22:10:48.653Z,1.10
2019-03-03T22:13:28.373Z,1.00
2019-03-03T22:16:08.469Z,1.10
2019-03-03T22:18:48.487Z,1.30
2019-03-03T22:21:28.467Z,1.20
2019-03-03T22:24:08.418Z,1.20
2019-03-03T22:26:48.689Z,1.40
2019-03-03T22:29:28.355Z,1.10
2019-03-03T22:32:07.745Z,1.30
2019-03-03T22:34:47.482Z,1.10
2019-03-03T22:37:27.561Z,1.20
2019-03-03T22:40:06.717Z,1.10
2019-03-03T22:42:46.769Z,1.10
2019-03-03T22:45:26.937Z,1.10
2019-03-03T22:48:07.154Z,1.10
2019-03-03T22:50:46.790Z,1.10
2019-03-03T22:53:26.674Z,1.10
2019-03-03T22:56:06.499Z,1.20
2019-03-03T22:58:46.657Z,1.20
2019-03-03T23:01:26.594Z,1.10
2019-03-03T23:04:06.373Z,1.10
2019-03-03T23:06:46.181Z,1.10
2019-03-03T23:09:26.257Z,1.10
2019-03-03T23:12:06.087Z,1.10
2019-03-03T23:14:46.297Z,1.20
2019-03-03T23:17:26.042Z,1.20
2019-03-03T23:20:06.285Z,1.20
2019-03-03T23:22:46.890Z,1.10
2019-03-03T23:25:26.431Z,1.00
2019-03-03T23:28:07.478Z,1.00
2019-03-03T23:30:47.437Z,1.10
2019-03-03T23:33:28.242Z,1.00
2019-03-03T23:36:08.313Z,0.90
2019-03-03T23:38:47.993Z,1.10
2019-03-03T23:41:28.106Z,0.90
2019-03-03T23:47:20.150Z,1.00
2019-03-03T23:49:57.389Z,0.80
2019-03-03T23:52:37.422Z,0.90
2019-03-03T23:55:16.547Z,1.00
2019-03-03T23:57:55.693Z,1.00
